Time;durP1;ratioP1;P1;durP2;ratioP2;P2;SDS_P1;SDS_P2;PMS_P1;PMS_P2;Temp;Humidity;BMP_temperature;BMP_pressure;BME280_temperature;BME280_humidity;BME280_pressure;Samples;Min_cycle;Max_cycle;Signal;HPM_P1;HPM_P2
2024/03/06 00:02:10;;;;;;;;;;;;;;;6.88;100.00;100278.66;5009772;28;20000;-77
2024/03/06 00:04:36;;;;;;;;;;;;;;;6.91;100.00;100282.25;5010778;28;20262;-76
2024/03/06 00:07:01;;;;;;;;;;;;;;;6.91;100.00;100284.81;5010004;28;20367;-74
2024/03/06 00:09:27;;;;;;;;;;;;;;;6.96;100.00;100283.34;5010818;28;20016;-75
2024/03/06 00:11:53;;;;;;;;;;;;;;;6.99;100.00;100277.50;5010279;28;20312;-73
2024/03/06 00:14:19;;;;;;;;;;;;;;;7.07;100.00;100276.16;5010918;28;19971;-72
2024/03/06 00:16:44;;;;;;;;;;;;;;;7.11;100.00;100277.19;4997658;28;19914;-72
2024/03/06 00:19:09;;;;;;;;;;;;;;;7.16;100.00;100273.16;5009995;28;19918;-73
2024/03/06 00:21:36;;;;;;;;;;;;;;;7.18;100.00;100286.06;5009936;28;19999;-74
2024/03/06 00:24:01;;;;;;;;;;;;;;;7.22;100.00;100278.59;5009812;28;19971;-74
2024/03/06 00:26:27;;;;;;;;;;;;;;;7.26;100.00;100277.03;5010181;28;19918;-74
2024/03/06 00:28:52;;;;;;;;;;;;;;;7.32;100.00;100282.47;5009370;28;19932;-72
2024/03/06 00:31:18;;;;;;;;;;;;;;;7.33;100.00;100283.34;5010070;28;20370;-74
2024/03/06 00:33:43;;;;;;;;;;;;;;;7.27;100.00;100286.50;5009819;28;20034;-73
2024/03/06 00:36:08;;;;;;;;;;;;;;;7.25;100.00;100283.88;5010649;28;19928;-74
2024/03/06 00:38:34;;;;;;;;;;;;;;;7.16;100.00;100288.56;5009808;28;20427;-70
2024/03/06 00:40:59;;;;;;;;;;;;;;;7.07;100.00;100281.31;5009894;28;20389;-72
2024/03/06 00:43:24;;;;;;;;;;;;;;;6.94;100.00;100290.09;5010074;28;20292;-72
2024/03/06 00:45:50;;;;;;;;;;;;;;;6.85;100.00;100301.59;5009710;28;20014;-72
2024/03/06 00:48:16;;;;;;;;;;;;;;;6.76;100.00;100292.63;5009930;28;19921;-75
2024/03/06 00:50:41;;;;;;;;;;;;;;;6.79;100.00;100300.50;5007350;28;19924;-72
2024/03/06 00:53:06;;;;;;;;;;;;;;;6.79;100.00;100300.50;5009560;28;19917;-76
2024/03/06 00:55:32;;;;;;;;;;;;;;;6.82;100.00;100298.88;5009453;28;19963;-72
2024/03/06 00:57:57;;;;;;;;;;;;;;;6.88;100.00;100300.06;5010512;28;20290;-72
2024/03/06 01:00:22;;;;;;;;;;;;;;;6.93;100.00;100298.59;5001189;28;19940;-73
2024/03/06 01:02:48;;;;;;;;;;;;;;;7.04;100.00;100306.84;5009618;28;19933;-73
2024/03/06 01:05:13;;;;;;;;;;;;;;;7.10;100.00;100302.00;5004968;28;20016;-74
2024/03/06 01:07:42;;;;;;;;;;;;;;;7.15;100.00;100303.91;5009637;28;19928;-72
2024/03/06 01:10:08;;;;;;;;;;;;;;;7.20;100.00;100298.19;5012884;28;20273;-73
2024/03/06 01:12:33;;;;;;;;;;;;;;;7.18;100.00;100294.66;5017009;28;19976;-73
2024/03/06 01:14:59;;;;;;;;;;;;;;;7.19;100.00;100300.66;5021838;28;19921;-72
2024/03/06 01:17:24;;;;;;;;;;;;;;;7.18;100.00;100298.91;5018626;28;20003;-73
2024/03/06 01:19:50;;;;;;;;;;;;;;;7.16;100.00;100298.81;5022729;28;19955;-72
2024/03/06 01:22:15;;;;;;;;;;;;;;;7.16;100.00;100311.66;5017489;28;20377;-73
2024/03/06 01:24:41;;;;;;;;;;;;;;;7.14;100.00;100303.03;5025280;28;19917;-74
2024/03/06 01:27:06;;;;;;;;;;;;;;;7.07;100.00;100303.53;5024843;28;19940;-71
2024/03/06 01:29:32;;;;;;;;;;;;;;;7.02;100.00;100300.75;5017747;28;19925;-72
2024/03/06 01:31:57;;;;;;;;;;;;;;;6.97;100.00;100305.63;5014615;28;19917;-73
2024/03/06 01:34:23;;;;;;;;;;;;;;;6.98;100.00;100319.38;5016537;28;20011;-73
2024/03/06 01:36:48;;;;;;;;;;;;;;;6.95;100.00;100316.63;5017373;28;20300;-73
2024/03/06 01:39:14;;;;;;;;;;;;;;;6.92;100.00;100326.78;5018465;28;19924;-72
2024/03/06 01:41:46;;;;;;;;;;;;;;;6.86;100.00;100327.34;4996257;28;19933;-72
2024/03/06 01:44:12;;;;;;;;;;;;;;;6.82;100.00;100328.00;5022648;28;19997;-72
2024/03/06 01:46:37;;;;;;;;;;;;;;;6.84;100.00;100330.63;5015344;28;19924;-73
2024/03/06 01:49:04;;;;;;;;;;;;;;;6.90;100.00;100325.81;5020408;28;19917;-75
2024/03/06 01:51:29;;;;;;;;;;;;;;;6.94;100.00;100323.47;5023434;28;19928;-72
2024/03/06 01:53:55;;;;;;;;;;;;;;;7.03;100.00;100329.84;5021173;28;19918;-75
2024/03/06 01:56:20;;;;;;;;;;;;;;;7.11;100.00;100333.69;5023933;28;19917;-74
2024/03/06 01:58:46;;;;;;;;;;;;;;;7.19;100.00;100337.50;5019843;28;19917;-76
2024/03/06 02:01:12;;;;;;;;;;;;;;;7.22;100.00;100329.06;5021019;28;20030;-76
2024/03/06 02:03:38;;;;;;;;;;;;;;;7.23;100.00;100338.53;5028690;28;20392;-72
2024/03/06 02:06:04;;;;;;;;;;;;;;;7.25;100.00;100334.34;5021668;28;19924;-76
2024/03/06 02:08:29;;;;;;;;;;;;;;;7.20;100.00;100336.72;5020329;28;19939;-74
2024/03/06 02:10:55;;;;;;;;;;;;;;;7.20;100.00;100344.41;5016935;28;20278;-72
2024/03/06 02:13:21;;;;;;;;;;;;;;;7.10;100.00;100348.22;5012065;28;20000;-72
2024/03/06 02:15:46;;;;;;;;;;;;;;;7.05;100.00;100348.78;5012484;28;19918;-76
2024/03/06 02:18:12;;;;;;;;;;;;;;;7.04;100.00;100353.03;5012537;28;20391;-78
2024/03/06 02:20:40;;;;;;;;;;;;;;;7.07;100.00;100350.59;5012690;28;19914;-74
2024/03/06 02:23:06;;;;;;;;;;;;;;;7.15;100.00;100353.53;5012123;28;19961;-73
2024/03/06 02:25:32;;;;;;;;;;;;;;;7.25;100.00;100352.31;5012917;28;20313;-71
2024/03/06 02:27:58;;;;;;;;;;;;;;;7.32;100.00;100351.81;5011970;28;19926;-70
2024/03/06 02:30:24;;;;;;;;;;;;;;;7.42;100.00;100354.00;5011780;28;19921;-72
2024/03/06 02:32:49;;;;;;;;;;;;;;;7.48;100.00;100352.53;5012481;28;19913;-72
2024/03/06 02:35:14;;;;;;;;;;;;;;;7.55;100.00;100350.34;5011499;28;19917;-71
2024/03/06 02:37:46;;;;;;;;;;;;;;;7.59;100.00;100352.25;5012102;28;20415;-70
2024/03/06 02:40:12;;;;;;;;;;;;;;;7.64;100.00;100351.56;5012035;28;19917;-73
2024/03/06 02:42:40;;;;;;;;;;;;;;;7.63;100.00;100357.50;4950326;28;19924;-72
2024/03/06 02:45:07;;;;;;;;;;;;;;;7.63;100.00;100360.06;5004169;28;19976;-75
2024/03/06 02:47:32;;;;;;;;;;;;;;;7.69;100.00;100356.13;5011761;28;20095;-72
2024/03/06 02:49:58;;;;;;;;;;;;;;;7.71;100.00;100359.66;5012082;28;20003;-72
2024/03/06 02:52:23;;;;;;;;;;;;;;;7.65;100.00;100368.75;5011111;28;19940;-71
2024/03/06 02:54:49;;;;;;;;;;;;;;;7.60;100.00;100366.84;5011813;28;19975;-72
2024/03/06 02:57:14;;;;;;;;;;;;;;;7.63;100.00;100365.22;5011782;28;19926;-72
2024/03/06 02:59:39;;;;;;;;;;;;;;;7.65;100.00;100361.94;5011631;28;19924;-71
2024/03/06 03:02:05;;;;;;;;;;;;;;;7.63;100.00;100360.06;5010411;28;20498;-73
2024/03/06 03:04:30;;;;;;;;;;;;;;;7.55;100.00;100358.06;5011403;28;19921;-71
2024/03/06 03:06:55;;;;;;;;;;;;;;;7.48;100.00;100355.09;5011310;28;19921;-72
2024/03/06 03:09:21;;;;;;;;;;;;;;;7.43;100.00;100354.91;5011157;28;19917;-71
2024/03/06 03:11:46;;;;;;;;;;;;;;;7.36;100.00;100361.41;5011382;28;20043;-72
2024/03/06 03:14:11;;;;;;;;;;;;;;;7.28;100.00;100365.31;5011105;28;20052;-73
2024/03/06 03:16:37;;;;;;;;;;;;;;;7.31;100.00;100367.16;5011846;28;19975;-72
2024/03/06 03:19:02;;;;;;;;;;;;;;;7.35;100.00;100366.47;5011076;28;19917;-73
2024/03/06 03:21:28;;;;;;;;;;;;;;;7.37;100.00;100370.00;5011105;28;19917;-71
2024/03/06 03:23:53;;;;;;;;;;;;;;;7.42;100.00;100378.81;5010714;28;19952;-71
2024/03/06 03:26:19;;;;;;;;;;;;;;;7.49;100.00;100380.88;5010583;28;19925;-73
2024/03/06 03:28:44;;;;;;;;;;;;;;;7.52;100.00;100372.44;5011256;28;19913;-72
2024/03/06 03:31:10;;;;;;;;;;;;;;;7.53;100.00;100375.06;5010987;28;19941;-74
2024/03/06 03:33:41;;;;;;;;;;;;;;;7.52;100.00;100375.88;5010800;28;19921;-72
2024/03/06 03:36:07;;;;;;;;;;;;;;;7.58;100.00;100375.28;5010480;28;20381;-73
2024/03/06 03:38:35;;;;;;;;;;;;;;;7.59;100.00;100374.50;4945674;28;19922;-72
2024/03/06 03:41:01;;;;;;;;;;;;;;;7.62;100.00;100374.63;4937217;28;20021;-73
2024/03/06 03:43:26;;;;;;;;;;;;;;;7.64;100.00;100378.16;4934665;28;20371;-72
2024/03/06 03:45:51;;;;;;;;;;;;;;;7.66;100.00;100373.94;4924797;28;19926;-72
2024/03/06 03:48:17;;;;;;;;;;;;;;;7.67;100.00;100374.84;4936514;28;19925;-72
2024/03/06 03:50:42;;;;;;;;;;;;;;;7.69;100.00;100378.34;4937657;28;20009;-71
2024/03/06 03:53:07;;;;;;;;;;;;;;;7.67;100.00;100380.84;4923267;28;20045;-73
2024/03/06 03:55:33;;;;;;;;;;;;;;;7.65;100.00;100385.06;4940165;28;20062;-71
2024/03/06 03:57:58;;;;;;;;;;;;;;;7.61;100.00;100385.69;4940564;28;19919;-73
2024/03/06 04:00:24;;;;;;;;;;;;;;;7.61;100.00;100383.13;4940994;28;20290;-75
2024/03/06 04:02:49;;;;;;;;;;;;;;;7.62;100.00;100384.91;4934778;28;19922;-71
2024/03/06 04:05:14;;;;;;;;;;;;;;;7.54;100.00;100387.13;4941874;28;19925;-73
2024/03/06 04:07:40;;;;;;;;;;;;;;;7.45;100.00;100396.94;4939425;28;20512;-75
2024/03/06 04:10:06;;;;;;;;;;;;;;;7.44;100.00;100392.63;4988927;28;19918;-74
2024/03/06 04:12:31;;;;;;;;;;;;;;;7.46;100.00;100388.41;5010055;28;20328;-71
2024/03/06 04:14:57;;;;;;;;;;;;;;;7.47;100.00;100392.75;5010030;28;19924;-70
2024/03/06 04:17:22;;;;;;;;;;;;;;;7.49;100.00;100397.97;5010679;28;19913;-72
2024/03/06 04:19:48;;;;;;;;;;;;;;;7.52;100.00;100399.00;4998565;28;19918;-73
2024/03/06 04:22:14;;;;;;;;;;;;;;;7.54;100.00;100402.53;5009840;28;19921;-72
2024/03/06 04:24:41;;;;;;;;;;;;;;;7.49;100.00;100396.28;5010388;28;19970;-73
2024/03/06 04:27:06;;;;;;;;;;;;;;;7.48;100.00;100399.66;5010442;28;20015;-76
2024/03/06 04:29:31;;;;;;;;;;;;;;;7.52;100.00;100399.00;5009898;28;20522;-70
2024/03/06 04:31:57;;;;;;;;;;;;;;;7.55;100.00;100406.88;5009644;28;20384;-71
2024/03/06 04:34:23;;;;;;;;;;;;;;;7.56;100.00;100406.06;5009664;28;20388;-71
2024/03/06 04:36:49;;;;;;;;;;;;;;;7.52;100.00;100409.25;5010216;28;19917;-72
2024/03/06 04:39:15;;;;;;;;;;;;;;;7.43;100.00;100411.41;5008472;28;19970;-72
2024/03/06 04:41:40;;;;;;;;;;;;;;;7.37;100.00;100405.97;5010444;28;20478;-72
2024/03/06 04:44:05;;;;;;;;;;;;;;;7.28;100.00;100409.84;5010524;28;19917;-77
2024/03/06 04:46:31;;;;;;;;;;;;;;;7.24;100.00;100400.22;5010248;28;19921;-73
2024/03/06 04:48:56;;;;;;;;;;;;;;;7.20;100.00;100416.31;5010077;28;19964;-73
2024/03/06 04:51:22;;;;;;;;;;;;;;;7.17;100.00;100426.41;5009690;28;20414;-72
2024/03/06 04:53:48;;;;;;;;;;;;;;;7.15;100.00;100427.13;5009644;28;19924;-72
2024/03/06 04:56:13;;;;;;;;;;;;;;;7.10;100.00;100427.78;5009965;28;19949;-73
2024/03/06 04:58:38;;;;;;;;;;;;;;;7.03;100.00;100427.38;5009597;28;19917;-72
2024/03/06 05:01:04;;;;;;;;;;;;;;;7.06;100.00;100436.13;5009940;28;20107;-72
2024/03/06 05:03:29;;;;;;;;;;;;;;;7.13;100.00;100434.75;5009566;28;19917;-71
2024/03/06 05:05:54;;;;;;;;;;;;;;;7.14;100.00;100436.53;5010235;28;19914;-72
2024/03/06 05:08:20;;;;;;;;;;;;;;;7.17;100.00;100431.53;5009590;28;19967;-72
2024/03/06 05:10:45;;;;;;;;;;;;;;;7.18;100.00;100437.53;4995299;28;20356;-72
2024/03/06 05:13:11;;;;;;;;;;;;;;;7.20;100.00;100447.13;5009525;28;20478;-73
2024/03/06 05:15:36;;;;;;;;;;;;;;;7.19;100.00;100445.34;5009501;28;20300;-72
2024/03/06 05:18:02;;;;;;;;;;;;;;;7.25;100.00;100439.63;5009347;28;19963;-71
2024/03/06 05:20:27;;;;;;;;;;;;;;;7.26;100.00;100447.41;5009689;28;19928;-71
2024/03/06 05:22:53;;;;;;;;;;;;;;;7.28;100.00;100450.06;5009352;28;19913;-72
2024/03/06 05:25:18;;;;;;;;;;;;;;;7.28;100.00;100450.94;5011303;28;19929;-71
2024/03/06 05:27:43;;;;;;;;;;;;;;;7.32;100.00;100461.38;4983940;28;19932;-75
2024/03/06 05:30:09;;;;;;;;;;;;;;;7.34;100.00;100467.44;5013787;28;19928;-74
2024/03/06 05:32:34;;;;;;;;;;;;;;;7.37;100.00;100465.03;4987170;28;19921;-72
2024/03/06 05:35:01;;;;;;;;;;;;;;;7.39;100.00;100469.44;5007854;28;19918;-74
2024/03/06 05:37:28;;;;;;;;;;;;;;;7.38;100.00;100477.09;5012442;28;20308;-71
2024/03/06 05:39:54;;;;;;;;;;;;;;;7.15;100.00;100473.34;5013035;28;20051;-71
2024/03/06 05:42:19;;;;;;;;;;;;;;;7.07;100.00;100483.22;5013020;28;20000;-71
2024/03/06 05:44:44;;;;;;;;;;;;;;;7.11;100.00;100488.56;5005974;28;20415;-75
2024/03/06 05:47:10;;;;;;;;;;;;;;;7.02;100.00;100482.13;5013217;28;20063;-73
2024/03/06 05:49:35;;;;;;;;;;;;;;;7.04;100.00;100483.06;5013311;28;20391;-73
2024/03/06 05:52:00;;;;;;;;;;;;;;;7.07;100.00;100483.22;5012264;28;19913;-72
2024/03/06 05:54:27;;;;;;;;;;;;;;;7.05;100.00;100482.25;5012761;28;19921;-71
2024/03/06 05:56:53;;;;;;;;;;;;;;;7.10;100.00;100480.81;5012856;28;19913;-75
2024/03/06 05:59:18;;;;;;;;;;;;;;;7.15;100.00;100488.75;5012606;28;19924;-75
2024/03/06 06:01:44;;;;;;;;;;;;;;;7.21;100.00;100487.38;5012998;28;19917;-71
2024/03/06 06:04:10;;;;;;;;;;;;;;;7.31;100.00;100490.41;5011806;28;19921;-75
2024/03/06 06:06:35;;;;;;;;;;;;;;;7.42;100.00;100496.97;5013761;28;19913;-73
2024/03/06 06:09:01;;;;;;;;;;;;;;;7.51;100.00;100494.84;5009222;28;19973;-74
2024/03/06 06:11:26;;;;;;;;;;;;;;;7.58;100.00;100490.91;5011303;28;20015;-71
2024/03/06 06:13:52;;;;;;;;;;;;;;;7.66;100.00;100488.72;5009673;28;19921;-71
2024/03/06 06:16:17;;;;;;;;;;;;;;;7.75;100.00;100495.19;4984775;28;19921;-74
2024/03/06 06:18:42;;;;;;;;;;;;;;;7.77;100.00;100484.97;5012247;28;19960;-75
2024/03/06 06:21:08;;;;;;;;;;;;;;;7.76;100.00;100496.06;5011777;28;20411;-75
2024/03/06 06:23:34;;;;;;;;;;;;;;;7.80;100.00;100495.41;4998476;28;19917;-72
2024/03/06 06:25:59;;;;;;;;;;;;;;;7.85;100.00;100503.31;5013465;28;19963;-74
2024/03/06 06:28:24;;;;;;;;;;;;;;;7.83;100.00;100499.81;5012219;28;19921;-73
2024/03/06 06:30:52;;;;;;;;;;;;;;;7.84;100.00;100488.72;5002212;28;19918;-72
2024/03/06 06:33:18;;;;;;;;;;;;;;;7.75;100.00;100490.03;5006280;28;19921;-78
2024/03/06 06:35:43;;;;;;;;;;;;;;;7.71;100.00;100497.53;4999909;28;19925;-74
2024/03/06 06:38:09;;;;;;;;;;;;;;;7.82;100.00;100492.91;5008018;28;19923;-74
2024/03/06 06:40:35;;;;;;;;;;;;;;;7.84;100.00;100497.31;5010249;28;19964;-74
2024/03/06 06:43:01;;;;;;;;;;;;;;;7.79;100.00;100498.78;5012111;28;20292;-74
2024/03/06 06:45:26;;;;;;;;;;;;;;;7.87;100.00;100494.00;5010312;28;19925;-75
2024/03/06 06:47:52;;;;;;;;;;;;;;;7.96;100.00;100502.16;5009097;28;19917;-75
2024/03/06 06:50:18;;;;;;;;;;;;;;;8.05;100.00;100494.00;5009151;28;19949;-74
2024/03/06 06:52:43;;;;;;;;;;;;;;;8.01;100.00;100503.28;4985122;28;19914;-73
2024/03/06 06:55:11;;;;;;;;;;;;;;;8.02;100.00;100501.56;5012712;28;20301;-74
2024/03/06 06:57:37;;;;;;;;;;;;;;;8.07;100.00;100502.66;5005587;28;19925;-74
2024/03/06 07:00:11;;;;;;;;;;;;;;;8.17;100.00;100510.00;5011758;28;19921;-75
2024/03/06 07:02:40;;;;;;;;;;;;;;;8.25;100.00;100512.97;5011481;28;19968;-72
2024/03/06 07:05:06;;;;;;;;;;;;;;;8.30;100.00;100508.00;5011919;28;19965;-73
2024/03/06 07:07:32;;;;;;;;;;;;;;;8.35;100.00;100509.09;5011519;28;19965;-77
2024/03/06 07:09:57;;;;;;;;;;;;;;;8.45;100.00;100510.41;5012276;28;20009;-73
2024/03/06 07:12:24;;;;;;;;;;;;;;;8.36;100.00;100505.72;5009286;28;19921;-76
2024/03/06 07:14:49;;;;;;;;;;;;;;;8.45;100.00;100511.31;5010133;28;20432;-77
2024/03/06 07:17:14;;;;;;;;;;;;;;;8.51;100.00;100509.06;5012769;28;20141;-72
2024/03/06 07:19:40;;;;;;;;;;;;;;;8.64;100.00;100512.19;5005096;28;19917;-72
2024/03/06 07:22:05;;;;;;;;;;;;;;;8.75;100.00;100516.13;5012694;28;20292;-74
2024/03/06 07:24:31;;;;;;;;;;;;;;;8.85;100.00;100512.28;5011703;28;19917;-74
2024/03/06 07:26:56;;;;;;;;;;;;;;;8.96;100.00;100516.19;5011845;28;20025;-73
2024/03/06 07:29:21;;;;;;;;;;;;;;;9.07;100.00;100514.97;5012535;28;20357;-73
2024/03/06 07:31:47;;;;;;;;;;;;;;;8.94;100.00;100507.53;5012197;28;19918;-73
2024/03/06 07:34:13;;;;;;;;;;;;;;;9.06;100.00;100508.06;5011495;28;19956;-71
2024/03/06 07:36:38;;;;;;;;;;;;;;;9.11;100.00;100510.84;5011383;28;20372;-73
2024/03/06 07:39:04;;;;;;;;;;;;;;;9.02;100.00;100510.44;5011208;28;19917;-74
2024/03/06 07:41:30;;;;;;;;;;;;;;;9.17;100.00;100517.94;5011702;28;20289;-71
2024/03/06 07:43:55;;;;;;;;;;;;;;;9.16;100.00;100513.59;5011768;28;19920;-73
2024/03/06 07:46:20;;;;;;;;;;;;;;;9.26;100.00;100515.78;4985775;28;19930;-71
2024/03/06 07:48:46;;;;;;;;;;;;;;;9.35;100.00;100515.28;5010588;28;19923;-73
2024/03/06 07:51:11;;;;;;;;;;;;;;;9.43;100.00;100519.06;5011174;28;19997;-72
2024/03/06 07:53:38;;;;;;;;;;;;;;;9.50;100.00;100522.78;5010850;28;19993;-73
2024/03/06 07:56:03;;;;;;;;;;;;;;;9.52;100.00;100527.19;5010910;28;19921;-72
2024/03/06 07:58:29;;;;;;;;;;;;;;;9.51;100.00;100522.84;5011098;28;19924;-73
2024/03/06 08:00:56;;;;;;;;;;;;;;;9.41;100.00;100531.00;5011007;28;19993;-72
2024/03/06 08:03:22;;;;;;;;;;;;;;;9.40;100.00;100529.25;5011153;28;20016;-73
2024/03/06 08:05:49;;;;;;;;;;;;;;;9.46;100.00;100528.59;5011836;28;20399;-74
2024/03/06 08:08:15;;;;;;;;;;;;;;;9.58;100.00;100533.41;5011261;28;19913;-73
2024/03/06 08:10:40;;;;;;;;;;;;;;;9.62;100.00;100535.28;5011940;28;19922;-73
2024/03/06 08:13:06;;;;;;;;;;;;;;;9.71;100.00;100533.97;5020311;28;19933;-73
2024/03/06 08:15:31;;;;;;;;;;;;;;;9.90;100.00;100531.28;5020917;28;19913;-75
2024/03/06 08:17:56;;;;;;;;;;;;;;;10.02;100.00;100531.78;5020850;28;20439;-71
2024/03/06 08:20:21;;;;;;;;;;;;;;;10.09;100.00;100528.59;5020602;28;20031;-73
2024/03/06 08:22:47;;;;;;;;;;;;;;;10.06;100.00;100523.34;5019999;28;19979;-73
2024/03/06 08:25:12;;;;;;;;;;;;;;;10.23;100.00;100531.75;5019551;28;19917;-73
2024/03/06 08:27:42;;;;;;;;;;;;;;;10.12;100.00;100521.00;5020962;28;19984;-72
2024/03/06 08:30:08;;;;;;;;;;;;;;;10.24;100.00;100514.56;5027260;28;20017;-76
2024/03/06 08:32:35;;;;;;;;;;;;;;;10.34;100.00;100511.50;5019408;28;19928;-72
2024/03/06 08:35:11;;;;;;;;;;;;;;;10.50;100.00;100524.25;5020088;28;19928;-72
2024/03/06 08:37:36;;;;;;;;;;;;;;;10.58;100.00;100527.09;5016571;28;20011;-74
2024/03/06 08:40:02;;;;;;;;;;;;;;;10.75;100.00;100527.72;5019176;28;20086;-74
2024/03/06 08:42:27;;;;;;;;;;;;;;;10.88;100.00;100531.66;5019409;28;19921;-72
2024/03/06 08:44:53;;;;;;;;;;;;;;;11.02;100.00;100523.53;5022014;28;19917;-73
2024/03/06 08:47:18;;;;;;;;;;;;;;;10.79;100.00;100524.44;5026145;28;19913;-72
2024/03/06 08:49:43;;;;;;;;;;;;;;;10.95;100.00;100522.41;5019660;28;19919;-72
2024/03/06 08:52:09;;;;;;;;;;;;;;;11.02;100.00;100520.94;5018329;28;19940;-73
2024/03/06 08:54:35;;;;;;;;;;;;;;;11.03;100.00;100523.56;5018709;28;20404;-73
2024/03/06 08:57:02;;;;;;;;;;;;;;;11.06;100.00;100534.00;5020237;28;19917;-72
2024/03/06 08:59:28;;;;;;;;;;;;;;;11.13;100.00;100536.00;5022387;28;19918;-73
2024/03/06 09:01:54;;;;;;;;;;;;;;;11.24;100.00;100538.06;4988385;28;19917;-72
2024/03/06 09:04:19;;;;;;;;;;;;;;;11.25;100.00;100534.66;5025846;28;20396;-73
2024/03/06 09:06:44;;;;;;;;;;;;;;;11.27;100.00;100535.59;4993136;28;19917;-73
2024/03/06 09:09:10;;;;;;;;;;;;;;;11.34;100.00;100540.19;5004404;28;19921;-72
2024/03/06 09:11:35;;;;;;;;;;;;;;;11.32;100.00;100541.81;5023006;28;19921;-72
2024/03/06 09:14:00;;;;;;;;;;;;;;;11.35;100.00;100539.31;5023646;28;19913;-73
2024/03/06 09:16:26;;;;;;;;;;;;;;;11.39;100.00;100543.78;5023607;28;20381;-73
2024/03/06 09:18:51;;;;;;;;;;;;;;;11.51;100.00;100547.63;5025903;28;19956;-73
2024/03/06 09:21:17;;;;;;;;;;;;;;;11.47;100.00;100554.41;5024076;28;19924;-74
2024/03/06 09:23:42;;;;;;;;;;;;;;;11.56;100.00;100549.53;5024412;28;20299;-72
2024/03/06 09:26:07;;;;;;;;;;;;;;;11.63;100.00;100551.50;5023109;28;19964;-72
2024/03/06 09:28:33;;;;;;;;;;;;;;;11.76;100.00;100551.91;5022135;28;20415;-72
2024/03/06 09:31:01;;;;;;;;;;;;;;;11.85;100.00;100549.66;5022989;28;20502;-73
2024/03/06 09:33:26;;;;;;;;;;;;;;;11.93;100.00;100545.59;5025241;28;19913;-71
2024/03/06 09:35:51;;;;;;;;;;;;;;;11.93;100.00;100553.34;5014317;28;19913;-73
2024/03/06 09:38:17;;;;;;;;;;;;;;;11.89;100.00;100554.09;5015584;28;19921;-71
2024/03/06 09:40:43;;;;;;;;;;;;;;;11.87;100.00;100550.56;5021810;28;19917;-72
2024/03/06 09:43:08;;;;;;;;;;;;;;;11.91;100.00;100555.03;5025433;28;20054;-73
2024/03/06 09:45:35;;;;;;;;;;;;;;;11.96;100.00;100547.41;5029752;28;19955;-73
2024/03/06 09:48:01;;;;;;;;;;;;;;;12.00;100.00;100548.41;5026177;28;19913;-75
2024/03/06 09:50:28;;;;;;;;;;;;;;;12.07;100.00;100553.81;5025556;28;20361;-73
2024/03/06 09:52:55;;;;;;;;;;;;;;;12.06;100.00;100557.25;5027022;28;19982;-71
2024/03/06 09:55:21;;;;;;;;;;;;;;;12.04;100.00;100561.50;4989798;28;19924;-74
2024/03/06 09:57:46;;;;;;;;;;;;;;;12.06;100.00;100553.78;5022092;28;20304;-74
2024/03/06 10:00:12;;;;;;;;;;;;;;;12.11;100.00;100555.69;5023302;28;19917;-75
2024/03/06 10:03:12;;;;;;;;;;;;;;;12.18;100.00;100551.59;5027389;28;20021;-73
2024/03/06 10:05:38;;;;;;;;;;;;;;;12.20;100.00;100546.44;4956169;28;20093;-74
2024/03/06 10:08:06;;;;;;;;;;;;;;;12.25;100.00;100555.22;4960308;28;20425;-75
2024/03/06 10:10:32;;;;;;;;;;;;;;;12.24;100.00;100548.31;4958963;28;19922;-72
2024/03/06 10:12:59;;;;;;;;;;;;;;;12.23;100.00;100549.16;4963254;28;20544;-73
2024/03/06 10:15:26;;;;;;;;;;;;;;;12.23;100.00;100541.38;4968584;28;19910;-73
2024/03/06 10:17:52;;;;;;;;;;;;;;;12.23;100.00;100547.44;4960089;28;20444;-74
2024/03/06 10:20:21;;;;;;;;;;;;;;;12.32;100.00;100536.47;4960527;28;19957;-73
2024/03/06 10:22:48;;;;;;;;;;;;;;;12.43;100.00;100542.00;4944589;28;19925;-75
2024/03/06 10:25:14;;;;;;;;;;;;;;;12.48;100.00;100535.25;4962793;28;19918;-73
2024/03/06 10:27:39;;;;;;;;;;;;;;;12.57;100.00;100526.88;4953775;28;19926;-75
2024/03/06 10:30:06;;;;;;;;;;;;;;;12.65;100.00;100527.09;4960153;28;20513;-74
2024/03/06 10:32:31;;;;;;;;;;;;;;;12.72;100.00;100529.94;4965511;28;19925;-73
2024/03/06 10:34:56;;;;;;;;;;;;;;;12.74;100.00;100525.66;4958658;28;19922;-73
2024/03/06 10:37:22;;;;;;;;;;;;;;;12.85;100.00;100530.28;4961277;28;19921;-73
2024/03/06 10:39:50;;;;;;;;;;;;;;;12.81;100.00;100525.81;4980514;28;19922;-74
2024/03/06 10:42:16;;;;;;;;;;;;;;;12.88;100.00;100527.75;5020423;28;19921;-73
2024/03/06 10:44:50;;;;;;;;;;;;;;;12.86;100.00;100521.66;5012319;28;19917;-75
2024/03/06 10:47:15;;;;;;;;;;;;;;;12.89;100.00;100529.53;4964535;28;20419;-74
2024/03/06 10:49:42;;;;;;;;;;;;;;;12.81;100.00;100528.41;5022575;28;19925;-72
2024/03/06 10:52:09;;;;;;;;;;;;;;;12.88;100.00;100522.59;5031918;28;19968;-73
2024/03/06 10:54:36;;;;;;;;;;;;;;;13.15;100.00;100521.59;5015408;28;19921;-73
2024/03/06 10:57:02;;;;;;;;;;;;;;;13.39;100.00;100519.69;5009827;28;19933;-73
2024/03/06 10:59:28;;;;;;;;;;;;;;;13.71;100.00;100523.97;5011229;28;19917;-73
2024/03/06 11:01:57;;;;;;;;;;;;;;;13.95;100.00;100510.69;5024536;28;19924;-72
2024/03/06 11:04:28;;;;;;;;;;;;;;;14.02;100.00;100520.38;5030195;28;19920;-71
2024/03/06 11:06:54;;;;;;;;;;;;;;;14.06;100.00;100511.81;5017806;28;19917;-71
2024/03/06 11:09:19;;;;;;;;;;;;;;;14.25;100.00;100501.84;5024286;28;20400;-72
2024/03/06 11:11:49;;;;;;;;;;;;;;;14.43;100.00;100504.00;5029203;28;19917;-69
2024/03/06 11:14:14;;;;;;;;;;;;;;;14.37;100.00;100501.25;5028659;28;20066;-71
2024/03/06 11:17:00;;;;;;;;;;;;;;;14.25;100.00;100501.84;5028926;28;20368;-71
2024/03/06 11:19:25;;;;;;;;;;;;;;;14.14;100.00;100501.59;5028920;28;19921;-70
2024/03/06 11:21:51;;;;;;;;;;;;;;;14.05;100.00;100497.06;5028556;28;19924;-75
2024/03/06 11:24:23;;;;;;;;;;;;;;;13.89;100.00;100497.56;5028186;28;19913;-73
2024/03/06 11:26:59;;;;;;;;;;;;;;;13.80;100.00;100485.25;5028642;28;19917;-72
2024/03/06 11:29:27;;;;;;;;;;;;;;;13.71;100.00;100491.09;5028554;28;19991;-73
2024/03/06 11:32:07;;;;;;;;;;;;;;;13.67;100.00;100491.88;5018767;28;19924;-73
2024/03/06 11:34:36;;;;;;;;;;;;;;;13.84;100.00;100481.00;5021636;28;19917;-73
2024/03/06 11:37:07;;;;;;;;;;;;;;;13.86;100.00;100471.56;5017577;28;19920;-72
2024/03/06 11:39:36;;;;;;;;;;;;;;;13.75;100.00;100484.25;5011429;28;20391;-71
2024/03/06 11:42:02;;;;;;;;;;;;;;;13.59;100.00;100483.91;5011415;28;19928;-77
2024/03/06 11:44:35;;;;;;;;;;;;;;;13.61;100.00;100485.63;5066576;28;19921;-72
2024/03/06 11:47:03;;;;;;;;;;;;;;;13.48;100.00;100479.28;5068141;28;19925;-72
2024/03/06 11:49:31;;;;;;;;;;;;;;;13.43;100.00;100480.03;5067658;28;19978;-70
2024/03/06 11:51:58;;;;;;;;;;;;;;;13.42;100.00;100477.38;5067460;28;19925;-72
2024/03/06 11:54:24;;;;;;;;;;;;;;;13.40;100.00;100477.34;5060016;28;19924;-72
2024/03/06 11:56:50;;;;;;;;;;;;;;;13.41;100.00;100475.66;5067444;28;19921;-72
2024/03/06 11:59:16;;;;;;;;;;;;;;;13.43;100.00;100474.84;5067452;28;19916;-73
2024/03/06 12:01:41;;;;;;;;;;;;;;;13.41;100.00;100476.53;5067403;28;20281;-72
2024/03/06 12:04:07;;;;;;;;;;;;;;;13.33;100.00;100475.41;5067067;28;20359;-72
2024/03/06 12:06:32;;;;;;;;;;;;;;;13.31;100.00;100469.31;5067693;28;20388;-76
2024/03/06 12:08:58;;;;;;;;;;;;;;;13.21;100.00;100472.53;5067147;28;19927;-73
2024/03/06 12:11:25;;;;;;;;;;;;;;;13.04;100.00;100462.56;5066590;28;20372;-71
2024/03/06 12:13:51;;;;;;;;;;;;;;;12.88;100.00;100463.84;5067139;28;19912;-72
2024/03/06 12:16:17;;;;;;;;;;;;;;;13.22;100.00;100459.59;5067082;28;19969;-71
2024/03/06 12:18:42;;;;;;;;;;;;;;;13.35;100.00;100455.59;5047883;28;19922;-71
2024/03/06 12:21:07;;;;;;;;;;;;;;;13.27;100.00;100449.31;5066779;28;19954;-70
2024/03/06 12:23:33;;;;;;;;;;;;;;;13.30;100.00;100457.19;5048752;28;20372;-73
2024/03/06 12:26:06;;;;;;;;;;;;;;;13.47;100.00;100459.34;5066735;28;19999;-72
2024/03/06 12:28:33;;;;;;;;;;;;;;;13.48;100.00;100464.56;5066715;28;19921;-71